Time;durP1;ratioP1;P1;durP2;ratioP2;P2;SDS_P1;SDS_P2;PMS_P1;PMS_P2;Temp;Humidity;BMP_temperature;BMP_pressure;BME280_temperature;BME280_humidity;BME280_pressure;Samples;Min_cycle;Max_cycle;Signal;HPM_P1;HPM_P2
2023/11/22 00:00:46;;;;;;;3.40;1.98;;;7.20;82.90;;;;;;5047534;28;20396;-60
2023/11/22 00:03:12;;;;;;;3.85;2.67;;;7.20;82.90;;;;;;5042616;28;20029;-60
2023/11/22 00:05:38;;;;;;;3.05;2.10;;;7.20;83.00;;;;;;5043914;28;20492;-60
2023/11/22 00:08:03;;;;;;;4.10;3.05;;;7.20;82.90;;;;;;5041539;28;20021;-60
2023/11/22 00:10:29;;;;;;;4.78;3.00;;;7.10;82.80;;;;;;5042441;28;20053;-60
2023/11/22 00:12:55;;;;;;;6.10;3.10;;;7.20;82.90;;;;;;5049369;28;20044;-60
2023/11/22 00:15:21;;;;;;;6.05;2.67;;;7.10;82.80;;;;;;5042117;28;20400;-60
2023/11/22 00:17:47;;;;;;;3.90;2.10;;;7.10;82.90;;;;;;5039979;28;20124;-60
2023/11/22 00:20:13;;;;;;;5.13;2.88;;;7.10;83.00;;;;;;5043895;28;20060;-60
2023/11/22 00:22:39;;;;;;;3.47;2.28;;;7.00;83.10;;;;;;5041424;28;20040;-60
2023/11/22 00:25:05;;;;;;;3.65;2.35;;;7.00;83.10;;;;;;5045169;28;20037;-60
2023/11/22 00:27:31;;;;;;;3.88;2.53;;;7.10;83.10;;;;;;5033409;28;20036;-60
2023/11/22 00:29:59;;;;;;;3.92;1.85;;;7.10;83.10;;;;;;5038947;28;20041;-60
2023/11/22 00:32:25;;;;;;;5.22;3.25;;;7.00;83.10;;;;;;5044173;28;20036;-60
2023/11/22 00:34:52;;;;;;;5.03;3.00;;;7.00;83.10;;;;;;5040513;28;20025;-60
2023/11/22 00:37:18;;;;;;;4.22;2.45;;;7.10;83.20;;;;;;5048681;28;20025;-60
2023/11/22 00:39:44;;;;;;;11.10;3.45;;;7.00;83.20;;;;;;5049585;28;20023;-60
2023/11/22 00:42:09;;;;;;;6.15;3.50;;;7.00;83.20;;;;;;5052132;28;20120;-60
2023/11/22 00:44:36;;;;;;;3.53;2.40;;;7.10;83.20;;;;;;5050048;28;20029;-60
2023/11/22 00:47:02;;;;;;;3.03;1.95;;;7.00;83.20;;;;;;5050100;28;20052;-60
2023/11/22 00:49:28;;;;;;;5.55;2.72;;;7.00;83.30;;;;;;5053097;28;20033;-60
2023/11/22 00:51:54;;;;;;;5.13;2.88;;;7.00;83.30;;;;;;5046017;28;20029;-60
2023/11/22 00:54:20;;;;;;;4.70;2.97;;;7.00;83.30;;;;;;5044417;28;20033;-60
2023/11/22 00:56:46;;;;;;;4.93;2.35;;;7.00;83.30;;;;;;5051048;28;20777;-60
2023/11/22 00:59:12;;;;;;;6.30;2.78;;;7.00;83.20;;;;;;5045843;28;20043;-60
2023/11/22 01:01:38;;;;;;;3.75;2.90;;;7.00;83.30;;;;;;5037200;28;20489;-60
2023/11/22 01:04:06;;;;;;;3.85;2.60;;;7.00;83.30;;;;;;5046479;28;20534;-60
2023/11/22 01:06:32;;;;;;;4.22;2.50;;;7.00;83.30;;;;;;5042437;28;20045;-60
2023/11/22 01:08:57;;;;;;;4.75;2.72;;;6.90;83.30;;;;;;5045981;28;20032;-60
2023/11/22 01:11:23;;;;;;;4.75;2.78;;;6.90;83.30;;;;;;5041109;28;20155;-60
2023/11/22 01:13:49;;;;;;;4.00;2.38;;;6.90;83.30;;;;;;5045381;28;20144;-60
2023/11/22 01:16:16;;;;;;;3.78;2.10;;;6.90;83.40;;;;;;5043606;28;20049;-60
2023/11/22 01:18:43;;;;;;;3.42;2.17;;;6.90;83.40;;;;;;5041285;28;20042;-61
2023/11/22 01:21:08;;;;;;;3.65;2.88;;;6.90;83.40;;;;;;5044246;28;20517;-60
2023/11/22 01:23:34;;;;;;;5.07;2.85;;;6.80;83.40;;;;;;5033819;28;20040;-60
2023/11/22 01:26:02;;;;;;;4.47;2.90;;;6.90;83.40;;;;;;5039930;28;20036;-60
2023/11/22 01:28:28;;;;;;;3.10;2.15;;;6.80;83.30;;;;;;5040137;28;20033;-60
2023/11/22 01:30:54;;;;;;;3.58;3.08;;;6.80;83.30;;;;;;5042452;28;20047;-60
2023/11/22 01:33:23;;;;;;;4.25;2.70;;;6.80;83.30;;;;;;5039621;28;20022;-60
2023/11/22 01:35:49;;;;;;;4.72;2.40;;;6.80;83.40;;;;;;5044351;28;20024;-60
2023/11/22 01:38:16;;;;;;;3.13;2.33;;;6.80;83.40;;;;;;5042549;28;20392;-60
2023/11/22 01:40:45;;;;;;;4.38;2.80;;;6.80;83.30;;;;;;5048240;28;20097;-60
2023/11/22 01:43:16;;;;;;;4.75;3.28;;;6.80;83.30;;;;;;5041741;28;20488;-60
2023/11/22 01:45:42;;;;;;;4.22;2.75;;;6.80;83.30;;;;;;5046117;28;20386;-60
2023/11/22 01:48:10;;;;;;;5.38;2.97;;;6.70;83.30;;;;;;5047647;28;20030;-60
2023/11/22 01:50:40;;;;;;;5.88;2.88;;;6.70;83.30;;;;;;5038251;28;20164;-60
2023/11/22 01:53:12;;;;;;;5.50;2.88;;;6.70;83.40;;;;;;5040636;28;20033;-60
2023/11/22 01:55:39;;;;;;;5.18;2.90;;;6.70;83.40;;;;;;5043037;28;20514;-60
2023/11/22 01:58:06;;;;;;;3.70;2.65;;;6.70;83.40;;;;;;5040258;28;20384;-60
2023/11/22 02:00:36;;;;;;;4.13;2.40;;;6.70;83.40;;;;;;5040514;28;20364;-60
2023/11/22 02:03:02;;;;;;;5.35;2.33;;;6.70;83.40;;;;;;5034072;28;20082;-60
2023/11/22 02:05:28;;;;;;;5.57;2.47;;;6.70;83.40;;;;;;5034249;28;20476;-60
2023/11/22 02:07:54;;;;;;;5.32;2.85;;;6.70;83.40;;;;;;5017369;28;20400;-60
2023/11/22 02:10:20;;;;;;;3.05;1.90;;;6.70;83.40;;;;;;5036187;28;20061;-60
2023/11/22 02:12:46;;;;;;;4.30;2.65;;;6.60;83.30;;;;;;5035231;28;20033;-60
2023/11/22 02:15:12;;;;;;;4.25;2.47;;;6.60;83.20;;;;;;5039641;28;20016;-60
2023/11/22 02:17:38;;;;;;;4.03;2.50;;;6.60;83.20;;;;;;5036997;28;20073;-60
2023/11/22 02:20:08;;;;;;;4.30;1.90;;;6.60;83.10;;;;;;5035964;28;20044;-60
2023/11/22 02:22:34;;;;;;;3.25;2.35;;;6.60;83.20;;;;;;5036916;28;20045;-60
2023/11/22 02:25:00;;;;;;;4.07;2.53;;;6.50;83.10;;;;;;5038887;28;20029;-60
2023/11/22 02:27:25;;;;;;;4.18;2.78;;;6.50;83.20;;;;;;5036307;28;20123;-60
2023/11/22 02:29:51;;;;;;;6.35;2.85;;;6.50;83.10;;;;;;5036840;28;20493;-60
2023/11/22 02:32:18;;;;;;;4.10;2.42;;;6.50;83.20;;;;;;5040208;28;20060;-60
2023/11/22 02:34:45;;;;;;;3.80;2.20;;;6.50;83.20;;;;;;5040175;28;20501;-60
2023/11/22 02:37:11;;;;;;;5.20;2.67;;;6.50;83.20;;;;;;5045329;28;20056;-60
2023/11/22 02:40:00;;;;;;;4.65;2.75;;;6.50;83.10;;;;;;5041576;28;20025;-60
2023/11/22 02:42:25;;;;;;;4.15;2.30;;;6.50;83.10;;;;;;5037801;28;20469;-60
2023/11/22 02:44:51;;;;;;;4.80;2.70;;;6.40;83.10;;;;;;5038750;28;20091;-60
2023/11/22 02:47:17;;;;;;;3.60;2.70;;;6.40;83.20;;;;;;5043320;28;20044;-60
2023/11/22 02:49:44;;;;;;;7.15;3.05;;;6.30;83.10;;;;;;5038593;28;20031;-60
2023/11/22 02:52:11;;;;;;;4.18;2.53;;;6.30;83.10;;;;;;5039507;28;20489;-60
2023/11/22 02:54:37;;;;;;;3.65;2.20;;;6.30;83.20;;;;;;5036082;28;20033;-60
2023/11/22 02:57:03;;;;;;;4.97;2.42;;;6.30;83.20;;;;;;5042848;28;20045;-60
2023/11/22 02:59:29;;;;;;;5.40;3.15;;;6.30;83.20;;;;;;5046581;28;20078;-60
2023/11/22 03:01:54;;;;;;;2.88;2.03;;;6.30;83.20;;;;;;5044005;28;20064;-60
2023/11/22 03:04:20;;;;;;;6.97;3.90;;;6.30;83.20;;;;;;5036703;28;20403;-60
2023/11/22 03:06:46;;;;;;;4.40;2.85;;;6.30;83.30;;;;;;5042263;28;20400;-60
2023/11/22 03:09:13;;;;;;;5.85;3.00;;;6.30;83.30;;;;;;5039221;28;20029;-60
2023/11/22 03:11:39;;;;;;;5.00;2.58;;;6.30;83.30;;;;;;5033659;28;20445;-61
2023/11/22 03:14:04;;;;;;;4.10;2.50;;;6.30;83.20;;;;;;5034739;28;20510;-60
2023/11/22 03:16:30;;;;;;;3.80;2.95;;;6.30;83.10;;;;;;5039536;28;20034;-60
2023/11/22 03:18:57;;;;;;;4.60;2.92;;;6.30;83.20;;;;;;5039278;28;20025;-60
2023/11/22 03:21:26;;;;;;;6.15;3.38;;;6.20;83.10;;;;;;5040959;28;20123;-60
2023/11/22 03:23:51;;;;;;;4.40;3.40;;;6.20;83.20;;;;;;5035133;28;20036;-60
2023/11/22 03:26:17;;;;;;;10.18;3.63;;;6.30;83.20;;;;;;5042664;28;20036;-60
2023/11/22 03:28:43;;;;;;;4.47;2.75;;;6.20;83.20;;;;;;5036049;28;20029;-60
2023/11/22 03:31:09;;;;;;;3.40;2.22;;;6.20;83.20;;;;;;5020224;28;20033;-60
2023/11/22 03:33:35;;;;;;;5.80;3.53;;;6.20;83.20;;;;;;5048386;28;20028;-60
2023/11/22 03:36:02;;;;;;;5.20;2.83;;;6.20;83.20;;;;;;5055328;28;20040;-60
2023/11/22 03:38:28;;;;;;;4.28;2.78;;;6.20;83.10;;;;;;5051047;28;20087;-60
2023/11/22 03:40:53;;;;;;;3.78;2.50;;;6.20;83.10;;;;;;5055920;28;20422;-60
2023/11/22 03:43:19;;;;;;;3.10;2.80;;;6.20;83.10;;;;;;5053020;28;20021;-60
2023/11/22 03:45:45;;;;;;;3.55;2.33;;;6.20;83.10;;;;;;5058271;28;20540;-60
2023/11/22 03:48:12;;;;;;;6.55;2.30;;;6.10;83.00;;;;;;5046785;28;20033;-60
2023/11/22 03:50:37;;;;;;;5.20;3.10;;;6.10;82.90;;;;;;5037047;28;20108;-60
2023/11/22 03:53:03;;;;;;;2.95;2.35;;;6.10;82.90;;;;;;5049093;28;20123;-60
2023/11/22 03:55:29;;;;;;;2.55;1.80;;;6.10;82.90;;;;;;5044352;28;20384;-60
2023/11/22 03:57:54;;;;;;;5.10;2.83;;;6.10;82.90;;;;;;5049699;28;20033;-60
2023/11/22 04:00:20;;;;;;;3.05;2.13;;;6.00;82.70;;;;;;5044240;28;20044;-60
2023/11/22 04:02:46;;;;;;;3.60;2.40;;;6.00;82.70;;;;;;5041927;28;20037;-60
2023/11/22 04:05:12;;;;;;;5.38;3.05;;;6.00;82.60;;;;;;5042575;28;20037;-60
2023/11/22 04:07:39;;;;;;;4.70;2.55;;;6.00;82.60;;;;;;5056395;28;20026;-60
2023/11/22 04:10:06;;;;;;;5.40;3.05;;;5.90;82.60;;;;;;5035904;28;20033;-60
2023/11/22 04:12:32;;;;;;;5.80;3.28;;;5.90;82.50;;;;;;5042995;28;20098;-60
2023/11/22 04:14:58;;;;;;;2.92;2.15;;;5.90;82.50;;;;;;5045255;28;20515;-60
2023/11/22 04:17:23;;;;;;;4.88;2.90;;;5.90;82.40;;;;;;5044361;28;20024;-60
2023/11/22 04:19:49;;;;;;;3.80;2.47;;;5.90;82.40;;;;;;5037368;28;20070;-60
2023/11/22 04:22:15;;;;;;;6.60;2.72;;;5.80;82.30;;;;;;5045367;28;20080;-60
2023/11/22 04:24:40;;;;;;;5.38;2.65;;;5.80;82.30;;;;;;5043084;28;20049;-60
2023/11/22 04:27:07;;;;;;;4.93;2.58;;;5.70;82.20;;;;;;5047346;28;20437;-60
2023/11/22 04:29:32;;;;;;;4.05;2.33;;;5.70;82.30;;;;;;5038406;28;20033;-60
2023/11/22 04:31:58;;;;;;;4.43;2.88;;;5.70;82.30;;;;;;5046442;28;20435;-60
2023/11/22 04:34:24;;;;;;;3.70;2.53;;;5.70;82.20;;;;;;5046538;28;20048;-60
2023/11/22 04:36:49;;;;;;;4.95;2.28;;;5.70;82.20;;;;;;5044349;28;20025;-60
2023/11/22 04:39:15;;;;;;;13.13;3.20;;;5.60;82.10;;;;;;5041364;28;20083;-60
2023/11/22 04:41:41;;;;;;;3.33;2.38;;;5.60;82.20;;;;;;5048156;28;20054;-60
2023/11/22 04:44:06;;;;;;;3.40;2.13;;;5.60;82.10;;;;;;5035300;28;20033;-60
2023/11/22 04:46:32;;;;;;;2.88;2.15;;;5.60;82.10;;;;;;5042145;28;20052;-60
2023/11/22 04:48:58;;;;;;;6.07;2.63;;;5.60;82.10;;;;;;5039044;28;20025;-60
2023/11/22 04:51:24;;;;;;;3.38;2.58;;;5.50;82.00;;;;;;5035084;28;20082;-60
2023/11/22 04:53:51;;;;;;;5.28;2.58;;;5.50;82.00;;;;;;5045564;28;20551;-60
2023/11/22 04:56:17;;;;;;;3.83;2.38;;;5.50;82.00;;;;;;5047063;28;20033;-60
2023/11/22 04:58:43;;;;;;;4.45;1.73;;;5.50;82.00;;;;;;5044199;28;20032;-60
2023/11/22 05:01:11;;;;;;;4.43;3.00;;;5.50;82.00;;;;;;5042655;28;20033;-60
2023/11/22 05:03:37;;;;;;;4.82;3.17;;;5.40;81.90;;;;;;5043811;28;20063;-60
2023/11/22 05:06:04;;;;;;;3.03;2.33;;;5.40;82.00;;;;;;5040082;28;20040;-60
2023/11/22 05:08:30;;;;;;;3.47;2.53;;;5.40;81.90;;;;;;5047021;28;20025;-60
2023/11/22 05:10:56;;;;;;;4.75;2.70;;;5.40;81.90;;;;;;5040255;28;20051;-60
2023/11/22 05:13:21;;;;;;;6.00;3.45;;;5.40;82.00;;;;;;5046835;28;20060;-60
2023/11/22 05:15:47;;;;;;;7.53;3.28;;;5.30;81.90;;;;;;5047169;28;20029;-60
2023/11/22 05:18:13;;;;;;;5.95;3.47;;;5.30;81.90;;;;;;5038523;28;20026;-60
2023/11/22 05:20:38;;;;;;;3.78;2.45;;;5.30;81.90;;;;;;5049774;28;20029;-60
2023/11/22 05:23:04;;;;;;;5.60;2.90;;;5.20;82.00;;;;;;5048952;28;20472;-60
2023/11/22 05:25:30;;;;;;;6.78;3.63;;;5.20;82.00;;;;;;5043333;28;20072;-60
2023/11/22 05:27:56;;;;;;;5.80;2.92;;;5.20;82.00;;;;;;5039586;28;20133;-60
2023/11/22 05:30:21;;;;;;;4.78;2.90;;;5.10;82.00;;;;;;5040342;28;20040;-60
2023/11/22 05:32:48;;;;;;;6.68;3.53;;;5.10;81.90;;;;;;5049029;28;20029;-60
2023/11/22 05:35:14;;;;;;;6.07;3.05;;;5.10;81.90;;;;;;5046614;28;20029;-60
2023/11/22 05:37:40;;;;;;;5.47;2.75;;;5.10;82.00;;;;;;5048403;28;20472;-61
2023/11/22 05:40:09;;;;;;;5.53;2.97;;;5.10;82.00;;;;;;5044329;28;20025;-60
2023/11/22 05:42:35;;;;;;;4.05;2.30;;;5.10;82.00;;;;;;5051182;28;20090;-60
2023/11/22 05:45:03;;;;;;;5.22;2.35;;;5.00;81.90;;;;;;5049617;28;20029;-60
2023/11/22 05:47:29;;;;;;;6.60;2.92;;;5.00;81.90;;;;;;5040912;28;20124;-60
2023/11/22 05:49:55;;;;;;;5.57;2.90;;;5.00;81.90;;;;;;5032609;28;20564;-60
2023/11/22 05:52:22;;;;;;;3.60;2.65;;;5.00;81.90;;;;;;5040290;28;20035;-60
2023/11/22 05:54:47;;;;;;;6.35;2.47;;;5.00;82.00;;;;;;5041561;28;20040;-60
2023/11/22 05:57:16;;;;;;;7.43;3.67;;;5.00;81.90;;;;;;5046145;28;20040;-60
2023/11/22 05:59:41;;;;;;;3.83;2.25;;;5.00;82.00;;;;;;5047778;28;20033;-60
2023/11/22 06:02:08;;;;;;;5.38;3.08;;;5.00;82.00;;;;;;5039126;28;20033;-60
2023/11/22 06:04:34;;;;;;;4.32;2.78;;;5.10;82.00;;;;;;5041401;28;20053;-60
2023/11/22 06:07:00;;;;;;;6.10;3.25;;;5.10;82.00;;;;;;5043324;28;20115;-60
2023/11/22 06:09:26;;;;;;;3.70;2.20;;;5.10;82.00;;;;;;5042601;28;20152;-60
2023/11/22 06:11:53;;;;;;;6.03;3.55;;;5.10;82.00;;;;;;5039634;28;20642;-61
2023/11/22 06:14:20;;;;;;;4.63;2.97;;;5.10;82.00;;;;;;5037581;28;20033;-61
2023/11/22 06:16:45;;;;;;;7.68;3.40;;;5.10;82.00;;;;;;5048624;28;20464;-61
2023/11/22 06:19:11;;;;;;;4.63;3.00;;;5.10;82.00;;;;;;5045194;28;20033;-61
2023/11/22 06:21:38;;;;;;;6.20;3.03;;;5.10;82.00;;;;;;5036333;28;20029;-60
2023/11/22 06:24:08;;;;;;;4.95;2.55;;;5.10;81.90;;;;;;5039894;28;20055;-60
2023/11/22 06:26:34;;;;;;;3.03;2.65;;;5.10;81.90;;;;;;5048357;28;20029;-60
2023/11/22 06:29:00;;;;;;;4.95;2.97;;;5.20;82.10;;;;;;5035780;28;20033;-60
2023/11/22 06:31:26;;;;;;;5.55;3.20;;;5.20;82.00;;;;;;5043414;28;20044;-60
2023/11/22 06:33:52;;;;;;;5.65;2.75;;;5.10;81.90;;;;;;5040173;28;20061;-60
2023/11/22 06:36:18;;;;;;;5.60;3.10;;;5.10;82.00;;;;;;5047115;28;20029;-60
2023/11/22 06:38:45;;;;;;;5.43;2.78;;;5.10;81.90;;;;;;5047322;28;20025;-60
2023/11/22 06:41:11;;;;;;;4.30;2.63;;;5.10;81.90;;;;;;5039384;28;20037;-60
2023/11/22 06:43:37;;;;;;;4.32;2.88;;;5.10;81.90;;;;;;5038212;28;20079;-60
2023/11/22 06:46:05;;;;;;;5.07;3.10;;;5.20;81.90;;;;;;5043385;28;20115;-60
2023/11/22 06:48:32;;;;;;;4.07;2.90;;;5.20;81.90;;;;;;5039507;28;20037;-60
2023/11/22 06:50:58;;;;;;;5.13;3.13;;;5.20;82.00;;;;;;5034738;28;20573;-60
2023/11/22 06:53:25;;;;;;;6.35;3.53;;;5.10;82.00;;;;;;5041003;28;20104;-60
2023/11/22 06:55:51;;;;;;;7.20;2.63;;;5.20;82.10;;;;;;5041389;28;20052;-60
2023/11/22 06:58:17;;;;;;;4.20;3.03;;;5.20;82.10;;;;;;5039546;28;20022;-60
2023/11/22 07:00:44;;;;;;;5.25;2.92;;;5.20;82.10;;;;;;5042629;28;20045;-60
2023/11/22 07:03:10;;;;;;;6.38;3.40;;;5.10;82.70;;;;;;5026463;28;20042;-60
2023/11/22 07:05:36;;;;;;;4.97;3.20;;;5.10;82.00;;;;;;5038030;28;20099;-60
2023/11/22 07:08:03;;;;;;;5.78;3.30;;;5.10;82.30;;;;;;5043211;28;20435;-60
2023/11/22 07:10:32;;;;;;;4.45;2.72;;;5.10;82.10;;;;;;5040312;28;20045;-60
2023/11/22 07:12:58;;;;;;;6.82;2.72;;;5.20;82.10;;;;;;5043675;28;20587;-60
2023/11/22 07:15:24;;;;;;;4.28;2.95;;;5.10;82.10;;;;;;5037826;28;20112;-61
2023/11/22 07:17:50;;;;;;;4.15;2.92;;;5.20;82.10;;;;;;5045888;28;20434;-61
2023/11/22 07:20:17;;;;;;;4.43;2.60;;;5.20;82.10;;;;;;5052642;28;20041;-61
2023/11/22 07:22:43;;;;;;;3.70;2.75;;;5.20;82.00;;;;;;5041422;28;20407;-60
2023/11/22 07:25:17;;;;;;;4.22;2.80;;;5.30;82.10;;;;;;5047253;28;20494;-61
2023/11/22 07:27:45;;;;;;;5.00;2.97;;;5.30;82.20;;;;;;5048564;28;20049;-61
2023/11/22 07:30:13;;;;;;;5.05;2.67;;;5.30;82.10;;;;;;5045241;28;20036;-60
2023/11/22 07:32:42;;;;;;;4.22;2.85;;;5.30;82.00;;;;;;5046841;28;20037;-60
2023/11/22 07:35:08;;;;;;;4.40;2.78;;;5.40;82.10;;;;;;5046692;28;20021;-61
2023/11/22 07:37:42;;;;;;;6.10;3.13;;;5.40;82.10;;;;;;5047989;28;20067;-60
2023/11/22 07:40:09;;;;;;;4.63;3.33;;;5.40;82.10;;;;;;5038305;28;20058;-60
2023/11/22 07:42:36;;;;;;;4.82;2.78;;;5.40;82.20;;;;;;5046386;28;20025;-60
2023/11/22 07:45:02;;;;;;;4.13;2.55;;;5.50;82.30;;;;;;5032762;28;20454;-60
2023/11/22 07:47:28;;;;;;;4.97;2.67;;;5.50;82.20;;;;;;5046040;28;20144;-60
2023/11/22 07:49:55;;;;;;;7.18;3.83;;;5.60;82.20;;;;;;5037110;28;20025;-60
2023/11/22 07:52:21;;;;;;;6.53;3.17;;;5.70;82.10;;;;;;5044351;28;20171;-61
2023/11/22 07:54:47;;;;;;;5.93;2.90;;;5.70;82.10;;;;;;5043233;28;20034;-60
2023/11/22 07:57:13;;;;;;;4.75;3.13;;;5.80;82.30;;;;;;5049910;28;20600;-60
2023/11/22 07:59:39;;;;;;;5.25;2.78;;;5.80;82.30;;;;;;5062661;28;20512;-60
2023/11/22 08:02:11;;;;;;;5.30;3.55;;;5.80;82.50;;;;;;5040343;28;20061;-60
2023/11/22 08:04:37;;;;;;;4.75;3.05;;;5.80;82.60;;;;;;5045823;28;20029;-60
2023/11/22 08:07:04;;;;;;;5.32;3.60;;;5.90;82.80;;;;;;5044679;28;20056;-60
2023/11/22 08:09:32;;;;;;;4.57;2.78;;;5.90;82.80;;;;;;5038204;28;20084;-61
2023/11/22 08:12:01;;;;;;;5.05;3.00;;;6.00;82.90;;;;;;5044260;28;20071;-60
2023/11/22 08:14:27;;;;;;;4.80;3.38;;;6.10;82.80;;;;;;5048343;28;20029;-60
2023/11/22 08:16:54;;;;;;;9.18;3.10;;;6.10;82.70;;;;;;5059493;28;20372;-60
2023/11/22 08:19:20;;;;;;;4.80;3.60;;;6.20;82.80;;;;;;5047142;28;20032;-60
2023/11/22 08:21:45;;;;;;;6.90;4.22;;;6.20;82.70;;;;;;5052391;28;20029;-60
2023/11/22 08:24:12;;;;;;;7.85;4.85;;;6.30;82.70;;;;;;5051743;28;20040;-60
2023/11/22 08:26:38;;;;;;;8.05;3.53;;;6.40;82.70;;;;;;5051512;28;20034;-60
2023/11/22 08:29:04;;;;;;;7.75;4.43;;;6.40;82.70;;;;;;5043021;28;20518;-60
2023/11/22 08:31:30;;;;;;;9.20;3.20;;;6.50;82.80;;;;;;5045033;28;20567;-61
2023/11/22 08:33:56;;;;;;;5.75;3.70;;;6.50;82.80;;;;;;5047220;28;20052;-60
2023/11/22 08:36:23;;;;;;;8.98;4.82;;;6.50;82.80;;;;;;5046439;28;20144;-61
2023/11/22 08:38:49;;;;;;;6.38;3.85;;;6.60;82.90;;;;;;5057115;28;20464;-61
2023/11/22 08:41:15;;;;;;;5.35;3.70;;;6.70;83.00;;;;;;5047811;28;20028;-60
2023/11/22 08:43:41;;;;;;;6.80;3.65;;;6.70;83.00;;;;;;5044640;28;20174;-60
2023/11/22 08:46:07;;;;;;;6.50;3.63;;;6.80;83.00;;;;;;5027650;28;20036;-60
2023/11/22 08:48:34;;;;;;;5.93;3.97;;;6.80;83.00;;;;;;5042604;28;20087;-60
2023/11/22 08:51:01;;;;;;;5.60;3.15;;;6.90;83.00;;;;;;5028266;28;20496;-60
2023/11/22 08:53:26;;;;;;;7.68;3.90;;;7.00;83.00;;;;;;5041036;28;20590;-60
2023/11/22 08:55:55;;;;;;;8.57;4.35;;;7.00;82.90;;;;;;5032234;28;20033;-61
2023/11/22 08:58:22;;;;;;;6.63;4.32;;;7.00;82.90;;;;;;5035575;28;20053;-60
2023/11/22 09:00:47;;;;;;;8.18;4.20;;;7.10;82.90;;;;;;5039248;28;20048;-61
2023/11/22 09:03:13;;;;;;;6.00;3.70;;;7.10;82.90;;;;;;5033241;28;20568;-61
2023/11/22 09:05:39;;;;;;;6.03;3.42;;;7.10;82.80;;;;;;5032328;28;20516;-61
2023/11/22 09:08:06;;;;;;;6.80;4.13;;;7.20;82.70;;;;;;5033790;28;20095;-61
2023/11/22 09:10:32;;;;;;;5.70;3.72;;;7.20;82.70;;;;;;5044850;28;20087;-61
2023/11/22 09:12:59;;;;;;;4.93;3.15;;;7.30;82.70;;;;;;5053523;28;20449;-61
2023/11/22 09:15:29;;;;;;;6.80;4.00;;;7.30;82.70;;;;;;5051205;28;20026;-60
2023/11/22 09:17:56;;;;;;;5.30;3.15;;;7.40;82.70;;;;;;5035866;28;20403;-60
2023/11/22 09:20:21;;;;;;;5.35;4.00;;;7.40;82.70;;;;;;5032702;28;20032;-61
2023/11/22 09:22:49;;;;;;;5.15;3.60;;;7.40;82.60;;;;;;5034895;28;20037;-62
2023/11/22 09:25:22;;;;;;;4.50;3.30;;;7.50;82.60;;;;;;5056808;28;20044;-61
2023/11/22 09:27:58;;;;;;;5.32;3.38;;;7.50;82.60;;;;;;5044967;28;20082;-60
2023/11/22 09:30:35;;;;;;;6.05;4.20;;;7.60;82.60;;;;;;5047915;28;20020;-61
2023/11/22 09:33:07;;;;;;;7.60;3.45;;;7.60;82.50;;;;;;5037576;28;20365;-60
2023/11/22 09:35:33;;;;;;;5.07;3.72;;;7.60;82.40;;;;;;5038565;28;20103;-60
2023/11/22 09:38:03;;;;;;;8.68;4.32;;;7.70;82.50;;;;;;5039312;28;20033;-60
2023/11/22 09:40:32;;;;;;;6.80;4.20;;;7.70;82.40;;;;;;5041797;28;20079;-61
2023/11/22 09:43:02;;;;;;;8.70;5.10;;;7.70;82.40;;;;;;5042931;28;20506;-59
2023/11/22 09:45:29;;;;;;;7.75;4.82;;;7.70;82.50;;;;;;5044537;28;20044;-61
2023/11/22 09:47:56;;;;;;;7.22;4.10;;;7.80;82.50;;;;;;5045678;28;20029;-61
2023/11/22 09:50:42;;;;;;;5.35;3.90;;;7.80;82.30;;;;;;5046868;28;20033;-60
2023/11/22 09:53:27;;;;;;;7.25;4.65;;;7.90;82.10;;;;;;5025889;28;20444;-60
2023/11/22 09:55:53;;;;;;;9.32;3.53;;;7.90;81.90;;;;;;5045077;28;20017;-60
2023/11/22 09:58:21;;;;;;;6.60;4.70;;;7.80;82.00;;;;;;5050174;28;20379;-60
2023/11/22 10:00:47;;;;;;;5.72;4.15;;;7.80;81.80;;;;;;5048103;28;20495;-60
2023/11/22 10:03:14;;;;;;;7.53;3.83;;;7.80;81.60;;;;;;5050265;28;20044;-60
2023/11/22 10:05:42;;;;;;;6.25;3.63;;;7.80;81.70;;;;;;5053720;28;20033;-61
2023/11/22 10:08:09;;;;;;;11.45;4.93;;;7.90;81.80;;;;;;5047000;28;20017;-63
2023/11/22 10:10:36;;;;;;;5.38;3.20;;;8.00;81.80;;;;;;5026100;28;20132;-63
2023/11/22 10:13:03;;;;;;;7.10;3.55;;;8.00;81.80;;;;;;5047444;28;20075;-63
2023/11/22 10:15:29;;;;;;;7.18;4.10;;;8.00;81.50;;;;;;5045683;28;20033;-62
2023/11/22 10:17:56;;;;;;;6.38;3.65;;;8.00;81.60;;;;;;5040218;28;20021;-61
2023/11/22 10:20:36;;;;;;;6.32;3.65;;;8.00;81.60;;;;;;5049620;28;20060;-62
2023/11/22 10:23:02;;;;;;;4.72;3.75;;;8.10;81.40;;;;;;5051224;28;20020;-61
2023/11/22 10:25:29;;;;;;;6.60;3.50;;;8.00;81.30;;;;;;5057197;28;20495;-62
2023/11/22 10:27:55;;;;;;;6.85;4.57;;;8.00;81.50;;;;;;5054580;28;20025;-62
2023/11/22 10:30:20;;;;;;;4.05;3.58;;;8.00;81.60;;;;;;5044742;28;20044;-63
2023/11/22 10:32:46;;;;;;;5.18;4.07;;;8.10;81.60;;;;;;5046671;28;20035;-63
2023/11/22 10:35:15;;;;;;;8.30;4.78;;;8.20;81.70;;;;;;5043229;28;20102;-61
2023/11/22 10:37:45;;;;;;;7.03;4.20;;;8.20;81.30;;;;;;5049136;28;20032;-61
2023/11/22 10:40:13;;;;;;;7.07;3.63;;;8.30;81.30;;;;;;5039075;28;20030;-64
2023/11/22 10:42:42;;;;;;;8.63;3.75;;;8.30;81.20;;;;;;5052202;28;20037;-64
2023/11/22 10:45:09;;;;;;;9.48;4.38;;;8.50;81.20;;;;;;5040763;28;20017;-61
2023/11/22 10:47:41;;;;;;;7.97;3.85;;;8.70;80.80;;;;;;5039668;28;20044;-60
2023/11/22 10:50:08;;;;;;;;;;;8.80;80.00;;;;;;5043969;28;20044;-61
2023/11/22 10:52:36;;;;;;;5.05;3.50;;;9.00;79.90;;;;;;5039089;28;19917;-61
2023/11/22 10:55:04;;;;;;;8.93;4.03;;;9.20;79.60;;;;;;5043678;28;20085;-60
2023/11/22 10:57:39;;;;;;;5.25;3.17;;;9.40;79.20;;;;;;5042655;28;20032;-60
2023/11/22 11:00:07;;;;;;;4.55;3.35;;;9.60;78.70;;;;;;5044423;28;20029;-60
2023/11/22 11:02:40;;;;;;;13.00;4.05;;;9.80;78.10;;;;;;5046642;28;20112;-60
2023/11/22 11:05:30;;;;;;;5.88;4.03;;;9.90;77.90;;;;;;5045411;28;20040;-60
2023/11/22 11:08:11;;;;;;;5.53;2.90;;;10.00;77.20;;;;;;5046970;28;20127;-60
2023/11/22 11:10:41;;;;;;;5.15;3.97;;;10.00;76.20;;;;;;5030339;28;20042;-60
2023/11/22 11:13:09;;;;;;;6.45;3.65;;;9.90;76.50;;;;;;5041509;28;20036;-60
2023/11/22 11:15:36;;;;;;;4.07;2.88;;;9.90;75.70;;;;;;5046239;28;20040;-63
2023/11/22 11:18:02;;;;;;;7.43;3.35;;;10.00;75.30;;;;;;5046571;28;20480;-64
2023/11/22 11:21:05;;;;;;;7.20;4.05;;;10.20;75.40;;;;;;5028695;28;20032;-67
2023/11/22 11:23:31;;;;;;;5.13;2.72;;;10.50;74.60;;;;;;5047912;28;21155;-60
2023/11/22 11:26:01;;;;;;;6.60;3.20;;;10.80;74.20;;;;;;5042245;28;20537;-61
2023/11/22 11:28:51;;;;;;;4.85;2.92;;;11.10;73.50;;;;;;5043015;28;20083;-61
2023/11/22 11:31:20;;;;;;;3.67;3.20;;;11.60;72.00;;;;;;5044200;28;20029;-61
2023/11/22 11:33:50;;;;;;;10.38;3.40;;;12.10;71.20;;;;;;5045721;28;20031;-62
2023/11/22 11:36:24;;;;;;;6.78;3.20;;;12.60;70.40;;;;;;5047108;28;20041;-62
2023/11/22 11:38:52;;;;;;;5.68;3.53;;;13.00;68.70;;;;;;5045097;28;20056;-62
2023/11/22 11:41:17;;;;;;;7.00;3.83;;;13.10;67.70;;;;;;5048282;28;20464;-62
2023/11/22 11:43:51;;;;;;;5.22;2.75;;;12.90;66.70;;;;;;5046332;28;20382;-62
2023/11/22 11:46:17;;;;;;;3.58;2.92;;;12.30;67.60;;;;;;5053058;28;20045;-62
2023/11/22 11:48:53;;;;;;;4.43;2.20;;;11.80;69.30;;;;;;5053741;28;20116;-61
2023/11/22 11:51:22;;;;;;;4.63;3.15;;;11.50;70.40;;;;;;5050740;28;20060;-62
2023/11/22 11:53:48;;;;;;;6.70;4.18;;;11.20;69.80;;;;;;5056352;28;20025;-61
2023/11/22 11:56:15;;;;;;;5.50;3.22;;;11.00;70.60;;;;;;5049324;28;20012;-61
2023/11/22 11:58:46;;;;;;;5.30;2.95;;;10.90;71.10;;;;;;5046791;28;20504;-62
2023/11/22 12:01:20;;;;;;;5.78;2.80;;;11.20;71.40;;;;;;5050979;28;20158;-62
2023/11/22 12:03:46;;;;;;;6.43;3.92;;;11.50;70.30;;;;;;5048256;28;20033;-61
2023/11/22 12:06:19;;;;;;;6.18;3.55;;;11.60;69.80;;;;;;5052772;28;20032;-61
2023/11/22 12:08:47;;;;;;;6.03;3.45;;;11.50;69.50;;;;;;5044173;28;20044;-62
2023/11/22 12:11:13;;;;;;;4.70;3.33;;;11.10;69.70;;;;;;5051829;28;20123;-62
2023/11/22 12:13:41;;;;;;;6.20;4.03;;;10.60;70.50;;;;;;5044693;28;20040;-62
2023/11/22 12:16:10;;;;;;;7.78;3.78;;;10.30;71.60;;;;;;5037818;28;20080;-62
2023/11/22 12:18:44;;;;;;;6.95;4.40;;;10.20;72.40;;;;;;5043094;28;20358;-62
2023/11/22 12:21:14;;;;;;;8.05;3.95;;;10.20;72.20;;;;;;5048752;28;20104;-62
2023/11/22 12:23:45;;;;;;;7.68;4.05;;;10.30;72.00;;;;;;5048849;28;20052;-62
2023/11/22 12:26:20;;;;;;;6.50;4.13;;;10.70;71.90;;;;;;5052368;28;20033;-62
2023/11/22 12:28:47;;;;;;;7.97;4.10;;;11.10;70.50;;;;;;5064975;28;20029;-61
2023/11/22 12:31:15;;;;;;;6.75;3.70;;;11.50;69.80;;;;;;5066127;28;20028;-62
2023/11/22 12:33:42;;;;;;;9.30;4.28;;;11.80;69.20;;;;;;5057551;28;20030;-61
2023/11/22 12:36:09;;;;;;;6.60;3.80;;;12.10;66.50;;;;;;5059383;28;20021;-62
2023/11/22 12:38:36;;;;;;;8.43;4.93;;;12.30;66.20;;;;;;5063989;28;20082;-61
2023/11/22 12:41:03;;;;;;;10.13;4.05;;;12.40;65.20;;;;;;5060932;28;20016;-61
2023/11/22 12:43:32;;;;;;;7.28;4.15;;;12.40;65.60;;;;;;5054166;28;20033;-62
2023/11/22 12:46:15;;;;;;;5.57;3.38;;;12.10;65.30;;;;;;5064994;28;20590;-62
2023/11/22 12:48:42;;;;;;;5.38;2.92;;;11.90;65.60;;;;;;5062092;28;20051;-62
2023/11/22 12:51:18;;;;;;;6.18;3.15;;;11.70;65.70;;;;;;5055270;28;20120;-62
2023/11/22 12:53:50;;;;;;;9.20;4.93;;;11.70;65.80;;;;;;5049750;28;20095;-62
2023/11/22 12:56:15;;;;;;;7.47;3.80;;;11.70;64.60;;;;;;5057703;28;20020;-62